sensor_id;sensor_type;location;lat;lon;timestamp;P1;durP1;ratioP1;P2;durP2;ratioP2
74401;SDS011;62837;51.082;13.744;2023-03-16T00:00:11;6.10;;;3.00;;
74401;SDS011;62837;51.082;13.744;2023-03-16T00:02:43;7.30;;;2.80;;
74401;SDS011;62837;51.082;13.744;2023-03-16T00:05:14;7.80;;;4.00;;
74401;SDS011;62837;51.082;13.744;2023-03-16T00:07:44;7.00;;;3.40;;
74401;SDS011;62837;51.082;13.744;2023-03-16T00:10:17;9.70;;;3.30;;
74401;SDS011;62837;51.082;13.744;2023-03-16T00:12:55;7.90;;;3.20;;
74401;SDS011;62837;51.082;13.744;2023-03-16T00:15:25;8.70;;;3.30;;
74401;SDS011;62837;51.082;13.744;2023-03-16T00:17:56;7.60;;;3.00;;
74401;SDS011;62837;51.082;13.744;2023-03-16T00:20:27;7.30;;;3.60;;
74401;SDS011;62837;51.082;13.744;2023-03-16T00:22:58;7.60;;;3.10;;
74401;SDS011;62837;51.082;13.744;2023-03-16T00:25:29;5.20;;;1.80;;
74401;SDS011;62837;51.082;13.744;2023-03-16T00:28:01;9.20;;;2.90;;
74401;SDS011;62837;51.082;13.744;2023-03-16T00:30:33;5.50;;;3.20;;
74401;SDS011;62837;51.082;13.744;2023-03-16T00:33:03;8.10;;;3.10;;
74401;SDS011;62837;51.082;13.744;2023-03-16T00:35:34;8.00;;;2.80;;
74401;SDS011;62837;51.082;13.744;2023-03-16T00:38:05;8.30;;;3.60;;
74401;SDS011;62837;51.082;13.744;2023-03-16T00:40:35;7.30;;;3.30;;
74401;SDS011;62837;51.082;13.744;2023-03-16T00:43:07;6.40;;;2.90;;
74401;SDS011;62837;51.082;13.744;2023-03-16T00:45:38;6.10;;;2.90;;
74401;SDS011;62837;51.082;13.744;2023-03-16T00:48:11;8.10;;;2.50;;
74401;SDS011;62837;51.082;13.744;2023-03-16T00:50:43;4.80;;;2.80;;
74401;SDS011;62837;51.082;13.744;2023-03-16T00:53:14;5.70;;;2.50;;
74401;SDS011;62837;51.082;13.744;2023-03-16T00:55:45;6.80;;;2.60;;
74401;SDS011;62837;51.082;13.744;2023-03-16T00:58:16;7.10;;;2.70;;
74401;SDS011;62837;51.082;13.744;2023-03-16T01:00:47;7.50;;;3.50;;
74401;SDS011;62837;51.082;13.744;2023-03-16T01:03:20;7.90;;;2.50;;
74401;SDS011;62837;51.082;13.744;2023-03-16T01:05:51;8.70;;;2.60;;
74401;SDS011;62837;51.082;13.744;2023-03-16T01:08:26;6.10;;;3.60;;
74401;SDS011;62837;51.082;13.744;2023-03-16T01:11:00;10.70;;;3.40;;
74401;SDS011;62837;51.082;13.744;2023-03-16T01:13:32;8.00;;;2.80;;
74401;SDS011;62837;51.082;13.744;2023-03-16T01:16:03;5.10;;;2.70;;
74401;SDS011;62837;51.082;13.744;2023-03-16T01:18:35;4.60;;;2.60;;
74401;SDS011;62837;51.082;13.744;2023-03-16T01:21:08;5.90;;;2.80;;
74401;SDS011;62837;51.082;13.744;2023-03-16T01:23:40;6.10;;;3.10;;
74401;SDS011;62837;51.082;13.744;2023-03-16T01:26:12;5.60;;;3.10;;
74401;SDS011;62837;51.082;13.744;2023-03-16T01:28:44;4.90;;;2.60;;
74401;SDS011;62837;51.082;13.744;2023-03-16T01:31:15;6.70;;;2.80;;
74401;SDS011;62837;51.082;13.744;2023-03-16T01:33:46;6.90;;;3.70;;
74401;SDS011;62837;51.082;13.744;2023-03-16T01:36:21;7.00;;;2.50;;
74401;SDS011;62837;51.082;13.744;2023-03-16T01:38:55;6.50;;;2.90;;
74401;SDS011;62837;51.082;13.744;2023-03-16T01:41:29;7.20;;;3.00;;
74401;SDS011;62837;51.082;13.744;2023-03-16T01:44:00;3.70;;;2.10;;
74401;SDS011;62837;51.082;13.744;2023-03-16T01:46:31;4.00;;;1.90;;
74401;SDS011;62837;51.082;13.744;2023-03-16T01:49:05;4.80;;;2.50;;
74401;SDS011;62837;51.082;13.744;2023-03-16T01:51:40;4.70;;;2.90;;
74401;SDS011;62837;51.082;13.744;2023-03-16T01:54:17;7.30;;;2.40;;
74401;SDS011;62837;51.082;13.744;2023-03-16T01:56:54;5.50;;;2.30;;
74401;SDS011;62837;51.082;13.744;2023-03-16T01:59:30;3.80;;;1.80;;
74401;SDS011;62837;51.082;13.744;2023-03-16T02:02:04;6.80;;;2.60;;
74401;SDS011;62837;51.082;13.744;2023-03-16T02:04:39;4.40;;;2.10;;
74401;SDS011;62837;51.082;13.744;2023-03-16T02:07:14;6.80;;;3.10;;
74401;SDS011;62837;51.082;13.744;2023-03-16T02:09:49;6.20;;;3.40;;
74401;SDS011;62837;51.082;13.744;2023-03-16T02:12:23;4.50;;;2.30;;
74401;SDS011;62837;51.082;13.744;2023-03-16T02:14:55;5.50;;;3.00;;
74401;SDS011;62837;51.082;13.744;2023-03-16T02:17:27;4.60;;;2.10;;
74401;SDS011;62837;51.082;13.744;2023-03-16T02:20:10;5.10;;;3.00;;
74401;SDS011;62837;51.082;13.744;2023-03-16T02:22:55;5.20;;;2.60;;
74401;SDS011;62837;51.082;13.744;2023-03-16T02:25:27;5.60;;;2.90;;
74401;SDS011;62837;51.082;13.744;2023-03-16T02:28:07;8.40;;;3.50;;
74401;SDS011;62837;51.082;13.744;2023-03-16T02:30:43;7.40;;;3.10;;
74401;SDS011;62837;51.082;13.744;2023-03-16T02:33:16;5.50;;;2.60;;
74401;SDS011;62837;51.082;13.744;2023-03-16T02:35:50;8.60;;;2.60;;
74401;SDS011;62837;51.082;13.744;2023-03-16T02:38:21;5.70;;;3.00;;
74401;SDS011;62837;51.082;13.744;2023-03-16T02:40:56;5.10;;;2.90;;
74401;SDS011;62837;51.082;13.744;2023-03-16T02:43:33;3.60;;;2.20;;
74401;SDS011;62837;51.082;13.744;2023-03-16T02:46:16;5.60;;;3.10;;
74401;SDS011;62837;51.082;13.744;2023-03-16T02:48:49;5.10;;;2.70;;
74401;SDS011;62837;51.082;13.744;2023-03-16T02:51:26;7.00;;;3.20;;
74401;SDS011;62837;51.082;13.744;2023-03-16T02:53:57;6.10;;;3.90;;
74401;SDS011;62837;51.082;13.744;2023-03-16T02:56:28;7.70;;;3.60;;
74401;SDS011;62837;51.082;13.744;2023-03-16T02:58:59;6.70;;;1.60;;
74401;SDS011;62837;51.082;13.744;2023-03-16T03:01:30;5.10;;;3.20;;
74401;SDS011;62837;51.082;13.744;2023-03-16T03:04:04;5.70;;;2.80;;
74401;SDS011;62837;51.082;13.744;2023-03-16T03:06:35;4.80;;;2.60;;
74401;SDS011;62837;51.082;13.744;2023-03-16T03:09:06;6.60;;;3.60;;
74401;SDS011;62837;51.082;13.744;2023-03-16T03:14:08;4.80;;;2.60;;
74401;SDS011;62837;51.082;13.744;2023-03-16T03:16:44;5.80;;;3.30;;
74401;SDS011;62837;51.082;13.744;2023-03-16T03:19:15;6.70;;;3.70;;
74401;SDS011;62837;51.082;13.744;2023-03-16T03:21:46;5.70;;;3.30;;
74401;SDS011;62837;51.082;13.744;2023-03-16T03:24:17;7.40;;;3.70;;
74401;SDS011;62837;51.082;13.744;2023-03-16T03:26:47;6.90;;;2.60;;
74401;SDS011;62837;51.082;13.744;2023-03-16T03:29:19;8.30;;;4.00;;
74401;SDS011;62837;51.082;13.744;2023-03-16T03:31:50;6.00;;;2.80;;
74401;SDS011;62837;51.082;13.744;2023-03-16T03:34:21;6.50;;;3.60;;
74401;SDS011;62837;51.082;13.744;2023-03-16T03:36:52;8.20;;;3.50;;
74401;SDS011;62837;51.082;13.744;2023-03-16T03:39:23;7.60;;;3.70;;
74401;SDS011;62837;51.082;13.744;2023-03-16T03:41:55;8.30;;;3.30;;
74401;SDS011;62837;51.082;13.744;2023-03-16T03:44:26;8.20;;;3.50;;
74401;SDS011;62837;51.082;13.744;2023-03-16T03:46:59;7.70;;;3.10;;
74401;SDS011;62837;51.082;13.744;2023-03-16T03:49:30;9.20;;;3.20;;
74401;SDS011;62837;51.082;13.744;2023-03-16T03:52:01;6.40;;;3.00;;
74401;SDS011;62837;51.082;13.744;2023-03-16T03:54:33;5.70;;;2.90;;
74401;SDS011;62837;51.082;13.744;2023-03-16T03:57:08;7.30;;;4.10;;
74401;SDS011;62837;51.082;13.744;2023-03-16T03:59:39;6.50;;;3.70;;
74401;SDS011;62837;51.082;13.744;2023-03-16T04:02:24;6.60;;;3.90;;
74401;SDS011;62837;51.082;13.744;2023-03-16T04:04:55;8.00;;;3.70;;
74401;SDS011;62837;51.082;13.744;2023-03-16T04:07:28;7.00;;;3.90;;
74401;SDS011;62837;51.082;13.744;2023-03-16T04:10:02;7.00;;;3.20;;
74401;SDS011;62837;51.082;13.744;2023-03-16T04:12:38;7.60;;;3.40;;
74401;SDS011;62837;51.082;13.744;2023-03-16T04:15:11;7.60;;;3.70;;
74401;SDS011;62837;51.082;13.744;2023-03-16T04:18:02;7.80;;;3.30;;
74401;SDS011;62837;51.082;13.744;2023-03-16T04:20:32;8.10;;;4.00;;
74401;SDS011;62837;51.082;13.744;2023-03-16T04:23:05;8.40;;;3.70;;
74401;SDS011;62837;51.082;13.744;2023-03-16T04:25:36;6.50;;;3.00;;
74401;SDS011;62837;51.082;13.744;2023-03-16T04:28:08;8.00;;;3.00;;
74401;SDS011;62837;51.082;13.744;2023-03-16T04:30:39;9.90;;;3.80;;
74401;SDS011;62837;51.082;13.744;2023-03-16T04:33:16;7.50;;;4.20;;
74401;SDS011;62837;51.082;13.744;2023-03-16T04:35:48;8.40;;;3.60;;
74401;SDS011;62837;51.082;13.744;2023-03-16T04:38:20;5.00;;;3.00;;
74401;SDS011;62837;51.082;13.744;2023-03-16T04:40:54;9.30;;;3.00;;
74401;SDS011;62837;51.082;13.744;2023-03-16T04:46:00;8.50;;;2.90;;
74401;SDS011;62837;51.082;13.744;2023-03-16T04:48:33;6.70;;;2.80;;
74401;SDS011;62837;51.082;13.744;2023-03-16T04:51:05;6.80;;;3.20;;
74401;SDS011;62837;51.082;13.744;2023-03-16T04:53:38;6.40;;;3.60;;
74401;SDS011;62837;51.082;13.744;2023-03-16T04:56:15;5.60;;;3.00;;
74401;SDS011;62837;51.082;13.744;2023-03-16T04:58:50;7.00;;;2.60;;
74401;SDS011;62837;51.082;13.744;2023-03-16T05:01:21;6.60;;;3.20;;
74401;SDS011;62837;51.082;13.744;2023-03-16T05:03:55;9.30;;;4.00;;
74401;SDS011;62837;51.082;13.744;2023-03-16T05:06:27;7.50;;;4.10;;
74401;SDS011;62837;51.082;13.744;2023-03-16T05:08:59;6.80;;;3.40;;
74401;SDS011;62837;51.082;13.744;2023-03-16T05:11:34;6.60;;;3.10;;
74401;SDS011;62837;51.082;13.744;2023-03-16T05:14:07;6.90;;;3.80;;
74401;SDS011;62837;51.082;13.744;2023-03-16T05:16:58;7.80;;;3.50;;
74401;SDS011;62837;51.082;13.744;2023-03-16T05:19:32;6.80;;;3.70;;
74401;SDS011;62837;51.082;13.744;2023-03-16T05:22:03;7.70;;;3.30;;
74401;SDS011;62837;51.082;13.744;2023-03-16T05:24:35;5.30;;;3.00;;
74401;SDS011;62837;51.082;13.744;2023-03-16T05:27:06;11.70;;;3.80;;
74401;SDS011;62837;51.082;13.744;2023-03-16T05:29:37;6.20;;;3.60;;
74401;SDS011;62837;51.082;13.744;2023-03-16T05:32:13;7.20;;;3.60;;
74401;SDS011;62837;51.082;13.744;2023-03-16T05:34:45;9.30;;;3.60;;
74401;SDS011;62837;51.082;13.744;2023-03-16T05:37:16;6.50;;;3.10;;
74401;SDS011;62837;51.082;13.744;2023-03-16T05:39:47;7.90;;;3.60;;
74401;SDS011;62837;51.082;13.744;2023-03-16T05:42:17;8.70;;;4.20;;
74401;SDS011;62837;51.082;13.744;2023-03-16T05:44:54;7.00;;;4.00;;
74401;SDS011;62837;51.082;13.744;2023-03-16T05:47:34;9.40;;;3.30;;
74401;SDS011;62837;51.082;13.744;2023-03-16T05:50:08;8.00;;;3.40;;
74401;SDS011;62837;51.082;13.744;2023-03-16T05:52:41;7.00;;;2.70;;
74401;SDS011;62837;51.082;13.744;2023-03-16T05:55:18;6.90;;;3.20;;
74401;SDS011;62837;51.082;13.744;2023-03-16T05:57:54;13.60;;;5.20;;
74401;SDS011;62837;51.082;13.744;2023-03-16T06:00:26;7.40;;;3.20;;
74401;SDS011;62837;51.082;13.744;2023-03-16T06:03:06;10.20;;;3.00;;
74401;SDS011;62837;51.082;13.744;2023-03-16T06:05:37;4.40;;;2.50;;
74401;SDS011;62837;51.082;13.744;2023-03-16T06:08:09;9.60;;;4.10;;
74401;SDS011;62837;51.082;13.744;2023-03-16T06:10:42;8.40;;;3.90;;
74401;SDS011;62837;51.082;13.744;2023-03-16T06:13:15;8.60;;;4.30;;
74401;SDS011;62837;51.082;13.744;2023-03-16T06:15:46;6.80;;;3.50;;
74401;SDS011;62837;51.082;13.744;2023-03-16T06:18:17;10.40;;;4.90;;
74401;SDS011;62837;51.082;13.744;2023-03-16T06:20:48;8.50;;;4.20;;
74401;SDS011;62837;51.082;13.744;2023-03-16T06:23:19;8.30;;;5.10;;
74401;SDS011;62837;51.082;13.744;2023-03-16T06:25:50;9.30;;;4.40;;
74401;SDS011;62837;51.082;13.744;2023-03-16T06:28:24;6.60;;;4.00;;
74401;SDS011;62837;51.082;13.744;2023-03-16T06:30:55;12.00;;;6.10;;
74401;SDS011;62837;51.082;13.744;2023-03-16T06:33:30;11.90;;;5.10;;
74401;SDS011;62837;51.082;13.744;2023-03-16T06:36:01;8.80;;;5.10;;
74401;SDS011;62837;51.082;13.744;2023-03-16T06:38:52;8.00;;;4.90;;
74401;SDS011;62837;51.082;13.744;2023-03-16T06:41:30;8.40;;;4.50;;
74401;SDS011;62837;51.082;13.744;2023-03-16T06:44:01;9.30;;;5.00;;
74401;SDS011;62837;51.082;13.744;2023-03-16T06:46:34;8.70;;;4.60;;
74401;SDS011;62837;51.082;13.744;2023-03-16T06:49:05;7.00;;;4.00;;
74401;SDS011;62837;51.082;13.744;2023-03-16T06:51:36;7.70;;;4.50;;
74401;SDS011;62837;51.082;13.744;2023-03-16T06:54:06;8.50;;;4.80;;
74401;SDS011;62837;51.082;13.744;2023-03-16T06:56:39;8.40;;;4.30;;
74401;SDS011;62837;51.082;13.744;2023-03-16T06:59:13;7.50;;;3.40;;
74401;SDS011;62837;51.082;13.744;2023-03-16T07:01:43;9.50;;;4.40;;
74401;SDS011;62837;51.082;13.744;2023-03-16T07:04:14;10.90;;;4.20;;
74401;SDS011;62837;51.082;13.744;2023-03-16T07:06:45;6.70;;;4.40;;
74401;SDS011;62837;51.082;13.744;2023-03-16T07:09:16;3.30;;;2.30;;
74401;SDS011;62837;51.082;13.744;2023-03-16T07:11:48;8.20;;;4.50;;
74401;SDS011;62837;51.082;13.744;2023-03-16T07:14:19;7.80;;;5.20;;
74401;SDS011;62837;51.082;13.744;2023-03-16T07:16:53;6.30;;;3.60;;
74401;SDS011;62837;51.082;13.744;2023-03-16T07:19:24;10.50;;;6.20;;
74401;SDS011;62837;51.082;13.744;2023-03-16T07:21:56;11.60;;;4.90;;
74401;SDS011;62837;51.082;13.744;2023-03-16T07:24:28;6.30;;;3.70;;
74401;SDS011;62837;51.082;13.744;2023-03-16T07:26:59;5.10;;;3.30;;
74401;SDS011;62837;51.082;13.744;2023-03-16T07:29:31;6.20;;;3.30;;
74401;SDS011;62837;51.082;13.744;2023-03-16T07:32:03;6.60;;;3.60;;
74401;SDS011;62837;51.082;13.744;2023-03-16T07:34:37;7.60;;;3.20;;
74401;SDS011;62837;51.082;13.744;2023-03-16T07:37:09;5.00;;;2.80;;
74401;SDS011;62837;51.082;13.744;2023-03-16T07:39:40;5.20;;;3.10;;
74401;SDS011;62837;51.082;13.744;2023-03-16T07:42:16;6.20;;;2.90;;
74401;SDS011;62837;51.082;13.744;2023-03-16T07:45:13;6.10;;;3.20;;
74401;SDS011;62837;51.082;13.744;2023-03-16T07:47:45;6.60;;;2.90;;
74401;SDS011;62837;51.082;13.744;2023-03-16T07:50:23;6.10;;;2.20;;
74401;SDS011;62837;51.082;13.744;2023-03-16T07:52:54;7.00;;;3.10;;
74401;SDS011;62837;51.082;13.744;2023-03-16T07:55:25;6.30;;;2.90;;
74401;SDS011;62837;51.082;13.744;2023-03-16T07:57:58;3.80;;;2.10;;
74401;SDS011;62837;51.082;13.744;2023-03-16T08:00:31;6.40;;;2.90;;
74401;SDS011;62837;51.082;13.744;2023-03-16T08:03:02;5.40;;;2.60;;
74401;SDS011;62837;51.082;13.744;2023-03-16T08:05:33;3.70;;;2.00;;
74401;SDS011;62837;51.082;13.744;2023-03-16T08:08:08;5.00;;;2.00;;
74401;SDS011;62837;51.082;13.744;2023-03-16T08:10:39;4.90;;;2.60;;
74401;SDS011;62837;51.082;13.744;2023-03-16T08:13:12;3.70;;;2.00;;
74401;SDS011;62837;51.082;13.744;2023-03-16T08:15:45;6.30;;;3.00;;
74401;SDS011;62837;51.082;13.744;2023-03-16T08:18:27;4.30;;;2.30;;
74401;SDS011;62837;51.082;13.744;2023-03-16T08:20:58;6.00;;;2.70;;
74401;SDS011;62837;51.082;13.744;2023-03-16T08:23:32;6.70;;;2.60;;
74401;SDS011;62837;51.082;13.744;2023-03-16T08:26:04;6.00;;;2.80;;
74401;SDS011;62837;51.082;13.744;2023-03-16T08:28:35;5.10;;;2.60;;
74401;SDS011;62837;51.082;13.744;2023-03-16T08:31:09;5.50;;;2.40;;
74401;SDS011;62837;51.082;13.744;2023-03-16T08:34:03;6.30;;;2.00;;
74401;SDS011;62837;51.082;13.744;2023-03-16T08:36:37;5.60;;;2.70;;
74401;SDS011;62837;51.082;13.744;2023-03-16T08:39:11;6.90;;;2.80;;
74401;SDS011;62837;51.082;13.744;2023-03-16T08:41:45;4.80;;;2.20;;
74401;SDS011;62837;51.082;13.744;2023-03-16T08:44:30;4.50;;;1.70;;
74401;SDS011;62837;51.082;13.744;2023-03-16T08:49:33;2.80;;;1.60;;
74401;SDS011;62837;51.082;13.744;2023-03-16T08:52:09;6.90;;;2.00;;
74401;SDS011;62837;51.082;13.744;2023-03-16T08:54:40;5.20;;;1.80;;
74401;SDS011;62837;51.082;13.744;2023-03-16T08:57:28;5.80;;;2.00;;
74401;SDS011;62837;51.082;13.744;2023-03-16T09:00:02;6.40;;;2.30;;
74401;SDS011;62837;51.082;13.744;2023-03-16T09:02:40;7.20;;;2.30;;
74401;SDS011;62837;51.082;13.744;2023-03-16T09:05:12;4.10;;;1.80;;
74401;SDS011;62837;51.082;13.744;2023-03-16T09:07:45;9.10;;;1.50;;
74401;SDS011;62837;51.082;13.744;2023-03-16T09:10:15;6.00;;;1.90;;
74401;SDS011;62837;51.082;13.744;2023-03-16T09:12:46;3.60;;;1.30;;
74401;SDS011;62837;51.082;13.744;2023-03-16T09:15:19;4.50;;;1.10;;
74401;SDS011;62837;51.082;13.744;2023-03-16T09:17:50;5.20;;;1.10;;
74401;SDS011;62837;51.082;13.744;2023-03-16T09:20:21;3.30;;;1.40;;
74401;SDS011;62837;51.082;13.744;2023-03-16T09:22:57;3.70;;;1.70;;
74401;SDS011;62837;51.082;13.744;2023-03-16T09:25:28;3.90;;;0.90;;
74401;SDS011;62837;51.082;13.744;2023-03-16T09:27:59;3.20;;;0.90;;
74401;SDS011;62837;51.082;13.744;2023-03-16T09:30:30;6.70;;;1.20;;
74401;SDS011;62837;51.082;13.744;2023-03-16T09:33:01;4.40;;;1.00;;
74401;SDS011;62837;51.082;13.744;2023-03-16T09:35:33;4.00;;;1.00;;
74401;SDS011;62837;51.082;13.744;2023-03-16T09:38:05;4.30;;;1.00;;
74401;SDS011;62837;51.082;13.744;2023-03-16T09:40:35;4.80;;;1.20;;
74401;SDS011;62837;51.082;13.744;2023-03-16T09:43:15;3.30;;;1.10;;
74401;SDS011;62837;51.082;13.744;2023-03-16T09:45:57;5.60;;;1.40;;
74401;SDS011;62837;51.082;13.744;2023-03-16T09:48:36;4.00;;;1.00;;
74401;SDS011;62837;51.082;13.744;2023-03-16T09:51:21;4.40;;;0.90;;
74401;SDS011;62837;51.082;13.744;2023-03-16T09:54:00;3.10;;;0.70;;
74401;SDS011;62837;51.082;13.744;2023-03-16T09:56:35;2.00;;;0.50;;
74401;SDS011;62837;51.082;13.744;2023-03-16T09:59:10;5.90;;;1.00;;
74401;SDS011;62837;51.082;13.744;2023-03-16T10:01:48;2.90;;;0.60;;
74401;SDS011;62837;51.082;13.744;2023-03-16T10:04:35;4.00;;;0.70;;
74401;SDS011;62837;51.082;13.744;2023-03-16T10:07:17;2.00;;;0.40;;
74401;SDS011;62837;51.082;13.744;2023-03-16T10:09:55;5.20;;;0.70;;
74401;SDS011;62837;51.082;13.744;2023-03-16T10:12:33;2.80;;;0.80;;
74401;SDS011;62837;51.082;13.744;2023-03-16T10:15:08;3.10;;;0.70;;
74401;SDS011;62837;51.082;13.744;2023-03-16T10:17:42;2.80;;;0.90;;
74401;SDS011;62837;51.082;13.744;2023-03-16T10:20:21;3.50;;;0.80;;
74401;SDS011;62837;51.082;13.744;2023-03-16T10:22:54;3.40;;;0.80;;
74401;SDS011;62837;51.082;13.744;2023-03-16T10:25:29;2.80;;;0.60;;
74401;SDS011;62837;51.082;13.744;2023-03-16T10:28:08;2.40;;;0.60;;
74401;SDS011;62837;51.082;13.744;2023-03-16T10:30:43;4.00;;;0.80;;
74401;SDS011;62837;51.082;13.744;2023-03-16T10:33:19;5.30;;;1.30;;
74401;SDS011;62837;51.082;13.744;2023-03-16T10:35:52;2.90;;;0.60;;
74401;SDS011;62837;51.082;13.744;2023-03-16T10:38:30;3.90;;;1.30;;
74401;SDS011;62837;51.082;13.744;2023-03-16T10:41:17;3.80;;;1.20;;
74401;SDS011;62837;51.082;13.744;2023-03-16T10:46:22;3.80;;;0.70;;
74401;SDS011;62837;51.082;13.744;2023-03-16T10:48:55;2.60;;;0.70;;
74401;SDS011;62837;51.082;13.744;2023-03-16T10:51:28;2.80;;;0.70;;
74401;SDS011;62837;51.082;13.744;2023-03-16T10:54:06;2.20;;;0.50;;
74401;SDS011;62837;51.082;13.744;2023-03-16T10:56:41;4.30;;;0.70;;
74401;SDS011;62837;51.082;13.744;2023-03-16T10:59:13;3.20;;;0.80;;
74401;SDS011;62837;51.082;13.744;2023-03-16T11:01:54;2.50;;;1.00;;
74401;SDS011;62837;51.082;13.744;2023-03-16T11:04:29;5.30;;;0.60;;
74401;SDS011;62837;51.082;13.744;2023-03-16T11:07:00;4.50;;;0.80;;
74401;SDS011;62837;51.082;13.744;2023-03-16T11:09:35;3.90;;;0.80;;
74401;SDS011;62837;51.082;13.744;2023-03-16T11:12:13;2.20;;;0.80;;
74401;SDS011;62837;51.082;13.744;2023-03-16T11:14:49;3.30;;;0.80;;
74401;SDS011;62837;51.082;13.744;2023-03-16T11:17:22;2.20;;;0.80;;
74401;SDS011;62837;51.082;13.744;2023-03-16T11:20:00;6.00;;;1.20;;
74401;SDS011;62837;51.082;13.744;2023-03-16T11:22:41;3.40;;;0.90;;
74401;SDS011;62837;51.082;13.744;2023-03-16T11:25:15;2.50;;;0.70;;
74401;SDS011;62837;51.082;13.744;2023-03-16T11:27:57;1.90;;;0.40;;
74401;SDS011;62837;51.082;13.744;2023-03-16T11:30:39;5.50;;;0.70;;
74401;SDS011;62837;51.082;13.744;2023-03-16T11:33:13;1.80;;;0.50;;
74401;SDS011;62837;51.082;13.744;2023-03-16T11:35:45;2.40;;;0.60;;
74401;SDS011;62837;51.082;13.744;2023-03-16T11:38:26;2.20;;;0.60;;
74401;SDS011;62837;51.082;13.744;2023-03-16T11:41:03;3.20;;;1.00;;
74401;SDS011;62837;51.082;13.744;2023-03-16T11:46:35;3.70;;;0.60;;
74401;SDS011;62837;51.082;13.744;2023-03-16T11:49:27;2.30;;;0.30;;
74401;SDS011;62837;51.082;13.744;2023-03-16T11:52:11;3.70;;;0.50;;
74401;SDS011;62837;51.082;13.744;2023-03-16T11:54:54;2.30;;;0.50;;
74401;SDS011;62837;51.082;13.744;2023-03-16T11:57:40;1.90;;;0.40;;
74401;SDS011;62837;51.082;13.744;2023-03-16T12:00:21;3.00;;;0.60;;
74401;SDS011;62837;51.082;13.744;2023-03-16T12:03:03;2.40;;;0.30;;
74401;SDS011;62837;51.082;13.744;2023-03-16T12:05:55;3.10;;;0.70;;
74401;SDS011;62837;51.082;13.744;2023-03-16T12:08:58;2.00;;;0.30;;
74401;SDS011;62837;51.082;13.744;2023-03-16T12:11:46;2.30;;;0.80;;
74401;SDS011;62837;51.082;13.744;2023-03-16T12:14:24;4.70;;;1.00;;
74401;SDS011;62837;51.082;13.744;2023-03-16T12:16:59;2.60;;;0.50;;
74401;SDS011;62837;51.082;13.744;2023-03-16T12:19:38;3.80;;;0.50;;
74401;SDS011;62837;51.082;13.744;2023-03-16T12:22:15;3.00;;;0.60;;
74401;SDS011;62837;51.082;13.744;2023-03-16T12:24:49;1.20;;;0.50;;
74401;SDS011;62837;51.082;13.744;2023-03-16T12:27:20;4.90;;;0.50;;
74401;SDS011;62837;51.082;13.744;2023-03-16T12:30:00;2.70;;;0.40;;
74401;SDS011;62837;51.082;13.744;2023-03-16T12:32:42;2.80;;;0.50;;
74401;SDS011;62837;51.082;13.744;2023-03-16T12:35:23;5.00;;;0.60;;
74401;SDS011;62837;51.082;13.744;2023-03-16T12:38:06;2.20;;;0.70;;
74401;SDS011;62837;51.082;13.744;2023-03-16T12:40:53;2.20;;;0.40;;
74401;SDS011;62837;51.082;13.744;2023-03-16T12:43:35;3.30;;;0.50;;
74401;SDS011;62837;51.082;13.744;2023-03-16T12:46:17;3.00;;;0.80;;
74401;SDS011;62837;51.082;13.744;2023-03-16T12:48:57;2.80;;;0.50;;
74401;SDS011;62837;51.082;13.744;2023-03-16T12:51:33;3.30;;;1.00;;
74401;SDS011;62837;51.082;13.744;2023-03-16T12:54:05;1.70;;;0.60;;
74401;SDS011;62837;51.082;13.744;2023-03-16T12:56:49;2.20;;;0.70;;
74401;SDS011;62837;51.082;13.744;2023-03-16T12:59:23;2.10;;;0.30;;
74401;SDS011;62837;51.082;13.744;2023-03-16T13:02:07;2.80;;;0.70;;
74401;SDS011;62837;51.082;13.744;2023-03-16T13:07:19;2.30;;;0.50;;
74401;SDS011;62837;51.082;13.744;2023-03-16T13:09:52;1.90;;;0.40;;
74401;SDS011;62837;51.082;13.744;2023-03-16T13:12:27;2.90;;;0.70;;
74401;SDS011;62837;51.082;13.744;2023-03-16T13:14:59;2.30;;;0.40;;
74401;SDS011;62837;51.082;13.744;2023-03-16T13:17:32;2.40;;;0.50;;
74401;SDS011;62837;51.082;13.744;2023-03-16T13:20:22;3.20;;;0.40;;
74401;SDS011;62837;51.082;13.744;2023-03-16T13:26:01;2.00;;;0.60;;
74401;SDS011;62837;51.082;13.744;2023-03-16T13:28:41;1.90;;;0.90;;
74401;SDS011;62837;51.082;13.744;2023-03-16T13:31:21;6.50;;;1.40;;
74401;SDS011;62837;51.082;13.744;2023-03-16T13:33:56;1.60;;;0.40;;
74401;SDS011;62837;51.082;13.744;2023-03-16T13:36:28;1.50;;;0.70;;
74401;SDS011;62837;51.082;13.744;2023-03-16T13:39:03;2.40;;;0.50;;
74401;SDS011;62837;51.082;13.744;2023-03-16T13:41:41;3.20;;;0.80;;
74401;SDS011;62837;51.082;13.744;2023-03-16T13:44:22;3.40;;;0.90;;
74401;SDS011;62837;51.082;13.744;2023-03-16T13:46:53;4.40;;;0.60;;
74401;SDS011;62837;51.082;13.744;2023-03-16T13:49:24;2.20;;;0.70;;
74401;SDS011;62837;51.082;13.744;2023-03-16T13:51:55;3.00;;;0.80;;
74401;SDS011;62837;51.082;13.744;2023-03-16T13:54:27;2.30;;;0.70;;
74401;SDS011;62837;51.082;13.744;2023-03-16T13:56:59;3.00;;;0.80;;
74401;SDS011;62837;51.082;13.744;2023-03-16T13:59:34;2.10;;;0.60;;
74401;SDS011;62837;51.082;13.744;2023-03-16T14:02:14;3.90;;;1.00;;
74401;SDS011;62837;51.082;13.744;2023-03-16T14:04:47;1.50;;;0.70;;
74401;SDS011;62837;51.082;13.744;2023-03-16T14:07:19;3.40;;;0.80;;
74401;SDS011;62837;51.082;13.744;2023-03-16T14:09:51;2.40;;;0.70;;
74401;SDS011;62837;51.082;13.744;2023-03-16T14:12:25;3.90;;;0.80;;
74401;SDS011;62837;51.082;13.744;2023-03-16T14:14:56;2.20;;;0.60;;
74401;SDS011;62837;51.082;13.744;2023-03-16T14:17:27;2.70;;;0.70;;
74401;SDS011;62837;51.082;13.744;2023-03-16T14:19:58;4.50;;;1.30;;
74401;SDS011;62837;51.082;13.744;2023-03-16T14:22:31;2.70;;;0.90;;
74401;SDS011;62837;51.082;13.744;2023-03-16T14:25:06;5.40;;;0.90;;
74401;SDS011;62837;51.082;13.744;2023-03-16T14:27:45;5.10;;;1.30;;
74401;SDS011;62837;51.082;13.744;2023-03-16T14:30:18;1.50;;;0.80;;
74401;SDS011;62837;51.082;13.744;2023-03-16T14:32:57;5.40;;;1.10;;
74401;SDS011;62837;51.082;13.744;2023-03-16T14:35:29;2.50;;;0.70;;
74401;SDS011;62837;51.082;13.744;2023-03-16T14:40:53;4.90;;;1.10;;
74401;SDS011;62837;51.082;13.744;2023-03-16T14:43:28;3.00;;;0.60;;
74401;SDS011;62837;51.082;13.744;2023-03-16T14:46:03;5.40;;;0.70;;
74401;SDS011;62837;51.082;13.744;2023-03-16T14:51:08;1.70;;;0.60;;
74401;SDS011;62837;51.082;13.744;2023-03-16T14:53:42;3.00;;;0.80;;
74401;SDS011;62837;51.082;13.744;2023-03-16T14:56:12;3.40;;;0.80;;
74401;SDS011;62837;51.082;13.744;2023-03-16T14:58:44;5.40;;;2.40;;
74401;SDS011;62837;51.082;13.744;2023-03-16T15:01:15;3.20;;;1.10;;
74401;SDS011;62837;51.082;13.744;2023-03-16T15:03:47;3.40;;;1.10;;
74401;SDS011;62837;51.082;13.744;2023-03-16T15:06:19;3.90;;;1.10;;
74401;SDS011;62837;51.082;13.744;2023-03-16T15:08:50;3.70;;;0.90;;
74401;SDS011;62837;51.082;13.744;2023-03-16T15:11:22;4.90;;;1.00;;
74401;SDS011;62837;51.082;13.744;2023-03-16T15:13:53;5.10;;;1.20;;
74401;SDS011;62837;51.082;13.744;2023-03-16T15:16:41;2.80;;;1.10;;
74401;SDS011;62837;51.082;13.744;2023-03-16T15:19:12;3.00;;;1.50;;
74401;SDS011;62837;51.082;13.744;2023-03-16T15:21:43;3.80;;;1.50;;
74401;SDS011;62837;51.082;13.744;2023-03-16T15:24:14;3.90;;;1.30;;
74401;SDS011;62837;51.082;13.744;2023-03-16T15:26:44;4.10;;;1.10;;
74401;SDS011;62837;51.082;13.744;2023-03-16T15:29:15;2.90;;;1.20;;
74401;SDS011;62837;51.082;13.744;2023-03-16T15:31:46;3.30;;;1.00;;
74401;SDS011;62837;51.082;13.744;2023-03-16T15:34:20;3.10;;;1.40;;
74401;SDS011;62837;51.082;13.744;2023-03-16T15:36:51;2.70;;;1.10;;
74401;SDS011;62837;51.082;13.744;2023-03-16T15:39:22;2.20;;;1.20;;